createdAt,value
2022-08-16T00:02:31.211Z,7.90
2022-08-16T00:05:00.120Z,8.20
2022-08-16T00:07:29.199Z,12.53
2022-08-16T00:09:58.715Z,10.33
2022-08-16T00:12:28.342Z,9.47
2022-08-16T00:14:56.591Z,10.47
2022-08-16T00:17:25.002Z,10.70
2022-08-16T00:19:53.424Z,9.00
2022-08-16T00:22:24.660Z,9.13
2022-08-16T00:24:53.570Z,10.27
2022-08-16T00:27:22.474Z,11.00
2022-08-16T00:30:00.862Z,8.67
2022-08-16T00:32:38.409Z,9.07
2022-08-16T00:35:15.020Z,11.13
2022-08-16T00:37:57.311Z,9.53
2022-08-16T00:40:43.584Z,9.17
2022-08-16T00:43:25.975Z,12.87
2022-08-16T00:46:22.356Z,10.20
2022-08-16T00:49:01.086Z,8.90
2022-08-16T00:51:29.844Z,8.90
2022-08-16T00:53:58.617Z,8.77
2022-08-16T00:56:56.843Z,12.10
2022-08-16T00:59:20.990Z,12.43
2022-08-16T01:01:52.167Z,12.23
2022-08-16T01:04:29.149Z,10.00
2022-08-16T01:07:01.902Z,12.40
2022-08-16T01:09:34.157Z,11.13
2022-08-16T01:12:03.554Z,13.97
2022-08-16T01:14:37.848Z,11.23
2022-08-16T01:17:08.396Z,10.93
2022-08-16T01:19:49.911Z,9.20
2022-08-16T01:22:49.715Z,10.07
2022-08-16T01:25:33.733Z,8.93
2022-08-16T01:28:04.679Z,10.40
2022-08-16T01:30:39.884Z,11.40
2022-08-16T01:33:16.948Z,11.47
2022-08-16T01:35:56.297Z,12.83
2022-08-16T01:38:25.929Z,11.80
2022-08-16T01:41:01.847Z,9.57
2022-08-16T01:43:31.115Z,10.27
2022-08-16T01:46:29.875Z,9.73
2022-08-16T01:48:53.407Z,10.07
2022-08-16T01:51:23.931Z,10.77
2022-08-16T01:53:54.647Z,10.17
2022-08-16T01:56:25.216Z,9.93
2022-08-16T01:58:55.109Z,10.40
2022-08-16T02:01:23.034Z,11.90
2022-08-16T02:03:53.172Z,9.67
2022-08-16T02:06:34.824Z,10.67
2022-08-16T02:09:12.031Z,10.00
2022-08-16T02:11:48.778Z,10.50
2022-08-16T02:14:22.437Z,10.70
2022-08-16T02:16:53.773Z,11.43
2022-08-16T02:19:21.525Z,12.30
2022-08-16T02:22:08.360Z,12.13
2022-08-16T02:24:42.571Z,12.30
2022-08-16T02:27:13.653Z,10.27
2022-08-16T02:29:42.772Z,11.53
2022-08-16T02:32:51.207Z,11.53
2022-08-16T02:34:59.616Z,11.17
2022-08-16T02:37:39.751Z,14.90
2022-08-16T02:40:19.387Z,15.87
2022-08-16T02:42:50.025Z,11.43
2022-08-16T02:45:24.905Z,12.17
2022-08-16T02:48:01.087Z,14.00
2022-08-16T02:50:54.452Z,11.63
2022-08-16T02:53:29.875Z,11.13
2022-08-16T02:55:56.839Z,11.93
2022-08-16T02:58:25.170Z,11.30
2022-08-16T03:00:56.155Z,11.07
2022-08-16T03:03:25.084Z,12.47
2022-08-16T03:05:53.131Z,13.90
2022-08-16T03:08:50.762Z,15.33
2022-08-16T03:11:16.259Z,14.60
2022-08-16T03:13:51.180Z,11.83
2022-08-16T03:16:37.792Z,13.23
2022-08-16T03:19:06.411Z,12.43
2022-08-16T03:21:37.747Z,13.33
2022-08-16T03:24:06.484Z,14.40
2022-08-16T03:26:53.443Z,13.60
2022-08-16T03:29:27.307Z,14.27
2022-08-16T03:31:59.209Z,14.30
2022-08-16T03:34:26.822Z,13.93
2022-08-16T03:36:54.018Z,17.17
2022-08-16T03:39:20.964Z,15.13
2022-08-16T03:41:50.215Z,14.07
2022-08-16T03:44:43.838Z,12.43
2022-08-16T03:47:10.039Z,13.40
2022-08-16T03:49:37.649Z,16.13
2022-08-16T03:52:06.207Z,13.90
2022-08-16T03:54:35.790Z,13.83
2022-08-16T03:57:04.936Z,16.27
2022-08-16T03:59:32.495Z,13.07
2022-08-16T04:02:01.725Z,15.77
2022-08-16T04:04:33.292Z,13.73
2022-08-16T04:07:02.851Z,15.00
2022-08-16T04:09:35.463Z,13.37
2022-08-16T04:12:11.184Z,16.43
2022-08-16T04:14:51.947Z,15.87
2022-08-16T04:17:18.812Z,13.63
2022-08-16T04:19:46.728Z,14.83
2022-08-16T04:22:17.397Z,14.47
2022-08-16T04:24:54.233Z,16.73
2022-08-16T04:27:24.353Z,14.90
2022-08-16T04:29:52.198Z,16.70
2022-08-16T04:32:20.016Z,15.13
2022-08-16T04:34:47.197Z,15.97
2022-08-16T04:37:14.308Z,16.27
2022-08-16T04:39:46.798Z,14.53
2022-08-16T04:42:17.778Z,15.33
2022-08-16T04:44:53.815Z,14.53
2022-08-16T04:47:31.715Z,15.93
2022-08-16T04:50:06.871Z,17.93
2022-08-16T04:52:36.060Z,17.10
2022-08-16T04:55:11.830Z,15.87
2022-08-16T04:57:41.391Z,15.20
2022-08-16T05:00:30.376Z,15.50
2022-08-16T05:03:07.496Z,15.67
2022-08-16T05:05:45.108Z,18.13
2022-08-16T05:08:29.937Z,18.03
2022-08-16T05:11:06.026Z,17.17
2022-08-16T05:13:40.462Z,16.67
2022-08-16T05:16:12.021Z,19.73
2022-08-16T05:18:47.144Z,15.27
2022-08-16T05:21:13.945Z,16.63
2022-08-16T05:23:40.836Z,17.17
2022-08-16T05:26:19.545Z,20.30
2022-08-16T05:28:48.074Z,19.03
2022-08-16T05:31:29.569Z,17.23
2022-08-16T05:34:03.651Z,17.17
2022-08-16T05:36:34.057Z,20.80
2022-08-16T05:39:04.751Z,18.23
2022-08-16T05:41:31.538Z,19.50
2022-08-16T05:44:00.362Z,18.40
2022-08-16T05:46:32.788Z,18.37
2022-08-16T05:49:09.018Z,19.27
2022-08-16T05:51:39.105Z,18.00
2022-08-16T05:54:08.026Z,18.53
2022-08-16T05:56:37.753Z,19.03
2022-08-16T05:59:06.402Z,18.07
2022-08-16T06:01:38.221Z,19.53
2022-08-16T06:04:13.531Z,19.87
2022-08-16T06:06:57.781Z,20.00
2022-08-16T06:09:43.324Z,22.90
2022-08-16T06:12:27.430Z,19.23
2022-08-16T06:14:59.187Z,20.93
2022-08-16T06:17:41.651Z,19.70
2022-08-16T06:20:24.173Z,19.40
2022-08-16T06:22:59.089Z,18.77
2022-08-16T06:25:35.845Z,18.63
2022-08-16T06:28:08.609Z,19.27
2022-08-16T06:30:44.063Z,18.33
2022-08-16T06:33:22.196Z,19.20
2022-08-16T06:35:50.767Z,22.87
2022-08-16T06:38:33.429Z,18.73
2022-08-16T06:41:03.840Z,19.00
2022-08-16T06:43:32.197Z,20.13
2022-08-16T06:45:59.587Z,19.13
2022-08-16T06:48:32.760Z,20.53
2022-08-16T06:51:01.934Z,20.23
2022-08-16T06:53:29.702Z,21.00
2022-08-16T06:55:58.648Z,22.40
2022-08-16T06:58:31.860Z,20.13
2022-08-16T07:01:02.592Z,21.27
2022-08-16T07:03:32.612Z,23.10
2022-08-16T07:05:59.856Z,22.63
2022-08-16T07:08:28.223Z,21.93
2022-08-16T07:10:56.490Z,20.97
2022-08-16T07:13:54.723Z,21.73
2022-08-16T07:16:17.016Z,23.10
2022-08-16T07:18:59.156Z,21.40
2022-08-16T07:21:45.999Z,22.27
2022-08-16T07:24:30.745Z,21.27
2022-08-16T07:26:59.071Z,25.93
2022-08-16T07:29:31.860Z,24.23
2022-08-16T07:32:00.555Z,20.50
2022-08-16T07:34:35.825Z,24.27
2022-08-16T07:37:09.738Z,23.73
2022-08-16T07:39:37.570Z,21.30
2022-08-16T07:42:28.189Z,22.40
2022-08-16T07:44:58.464Z,20.27
2022-08-16T07:47:31.445Z,20.70
2022-08-16T07:50:07.475Z,25.53
2022-08-16T07:52:34.966Z,25.27
2022-08-16T07:55:06.749Z,20.43
2022-08-16T07:57:37.956Z,20.07
2022-08-16T08:00:18.402Z,19.20
2022-08-16T08:02:47.718Z,20.37
2022-08-16T08:05:25.429Z,20.23
2022-08-16T08:08:11.529Z,19.20
2022-08-16T08:10:39.030Z,19.30
2022-08-16T08:13:06.038Z,19.83
2022-08-16T08:15:37.041Z,21.60
2022-08-16T08:18:29.991Z,20.17
2022-08-16T08:20:58.893Z,19.37
2022-08-16T08:23:25.966Z,19.40
2022-08-16T08:25:54.873Z,17.10
2022-08-16T08:28:22.583Z,23.83
2022-08-16T08:31:01.533Z,21.13
2022-08-16T08:33:31.866Z,16.77
2022-08-16T08:36:05.179Z,18.20
2022-08-16T08:38:44.984Z,19.07
2022-08-16T08:41:15.459Z,16.03
2022-08-16T08:43:47.113Z,16.20
2022-08-16T08:46:21.492Z,16.90
2022-08-16T08:48:59.486Z,17.33
2022-08-16T08:51:31.865Z,19.33
2022-08-16T08:54:06.871Z,16.60
2022-08-16T08:56:37.839Z,17.17
2022-08-16T08:59:19.857Z,17.37
2022-08-16T09:01:57.665Z,15.60
2022-08-16T09:04:26.762Z,15.83
2022-08-16T09:06:54.708Z,16.63
2022-08-16T09:09:22.763Z,15.93
2022-08-16T09:12:03.967Z,15.53
2022-08-16T09:14:34.524Z,18.70
2022-08-16T09:17:11.904Z,15.57
2022-08-16T09:19:52.633Z,14.13
2022-08-16T09:22:28.144Z,13.97
2022-08-16T09:25:10.032Z,15.88
2022-08-16T09:27:56.799Z,15.68
2022-08-16T09:30:34.082Z,15.85
2022-08-16T09:33:06.511Z,13.35
2022-08-16T09:35:36.630Z,14.05
2022-08-16T09:38:05.528Z,13.27
2022-08-16T09:40:43.276Z,13.60
2022-08-16T09:43:57.921Z,12.60
2022-08-16T09:46:33.497Z,12.38
2022-08-16T09:48:56.430Z,11.15
2022-08-16T09:51:30.606Z,11.23
2022-08-16T09:54:03.701Z,10.88
2022-08-16T09:56:35.373Z,14.50
2022-08-16T09:59:07.905Z,9.88
2022-08-16T10:01:37.040Z,10.88
2022-08-16T10:04:28.915Z,10.68
2022-08-16T10:09:25.650Z,10.18
2022-08-16T10:12:31.190Z,10.38
2022-08-16T10:14:57.935Z,15.32
2022-08-16T10:17:25.244Z,10.32
2022-08-16T10:19:55.356Z,11.35
2022-08-16T10:22:23.352Z,12.43
2022-08-16T10:24:56.074Z,10.30
2022-08-16T10:27:29.774Z,10.33
2022-08-16T10:30:26.283Z,8.50
2022-08-16T10:32:57.186Z,8.53
2022-08-16T10:35:32.654Z,9.67
2022-08-16T10:38:00.164Z,10.80
2022-08-16T10:40:29.432Z,9.90
2022-08-16T10:43:00.546Z,10.97
2022-08-16T10:45:36.658Z,7.53
2022-08-16T10:48:27.514Z,8.23
2022-08-16T10:50:58.731Z,11.82
2022-08-16T10:53:33.182Z,10.20
2022-08-16T10:56:55.951Z,12.37
2022-08-16T10:59:32.377Z,7.87
2022-08-16T11:02:21.831Z,9.43
2022-08-16T11:12:54.246Z,7.80
2022-08-16T11:15:21.829Z,7.57
2022-08-16T11:18:48.753Z,13.37
2022-08-16T11:20:48.678Z,10.83
2022-08-16T11:23:16.801Z,9.30
2022-08-16T11:31:18.130Z,11.93
2022-08-16T11:33:52.792Z,7.13
2022-08-16T11:36:27.835Z,6.80
2022-08-16T11:39:00.172Z,6.75
2022-08-16T11:41:29.431Z,6.72
2022-08-16T11:43:59.582Z,10.48
2022-08-16T11:46:43.639Z,8.88
2022-08-16T11:49:14.332Z,9.18
2022-08-16T11:51:46.007Z,6.65
2022-08-16T11:54:20.667Z,10.98
2022-08-16T11:56:57.311Z,9.07
2022-08-16T11:59:28.633Z,8.52
2022-08-16T12:01:59.511Z,9.50
2022-08-16T12:04:27.981Z,6.65
2022-08-16T12:06:54.965Z,6.45
2022-08-16T12:09:24.062Z,9.07
2022-08-16T12:11:52.776Z,6.82
2022-08-16T12:14:22.641Z,7.63
2022-08-16T12:16:55.627Z,6.88
2022-08-16T12:19:35.507Z,8.30
2022-08-16T12:22:05.872Z,7.93
2022-08-16T12:24:52.181Z,8.93
2022-08-16T12:27:23.196Z,5.38
2022-08-16T12:29:53.987Z,5.15
2022-08-16T12:32:38.405Z,4.25
2022-08-16T12:35:12.180Z,8.32
2022-08-16T12:37:39.878Z,6.47
2022-08-16T12:40:24.128Z,5.90
2022-08-16T12:42:58.518Z,5.28
2022-08-16T12:45:35.627Z,5.57
2022-08-16T12:48:39.406Z,5.90
2022-08-16T12:51:19.922Z,4.25
2022-08-16T12:53:51.806Z,5.13
2022-08-16T12:56:20.774Z,5.10
2022-08-16T12:58:51.871Z,6.32
2022-08-16T13:01:26.863Z,5.65
2022-08-16T13:04:11.969Z,4.68
2022-08-16T13:06:43.176Z,8.45
2022-08-16T13:09:20.745Z,5.93
2022-08-16T13:12:03.481Z,7.55
2022-08-16T13:14:37.959Z,5.75
2022-08-16T13:17:08.990Z,7.93
2022-08-16T13:20:06.738Z,4.85
2022-08-16T13:22:25.184Z,5.25
2022-08-16T13:24:54.416Z,6.40
2022-08-16T13:28:02.950Z,5.85
2022-08-16T13:30:22.138Z,7.40
2022-08-16T13:32:57.062Z,6.80
2022-08-16T13:35:25.572Z,6.63
2022-08-16T13:37:52.424Z,7.43
2022-08-16T13:40:21.249Z,7.38
2022-08-16T13:42:49.675Z,7.70
2022-08-16T13:45:17.432Z,8.35
2022-08-16T13:47:46.244Z,6.70
2022-08-16T13:50:14.340Z,6.38
2022-08-16T13:52:42.497Z,5.65
2022-08-16T13:55:17.603Z,5.38
2022-08-16T13:58:35.167Z,4.93
2022-08-16T14:00:32.016Z,7.88
2022-08-16T14:02:59.160Z,5.45
2022-08-16T14:05:27.336Z,8.05
2022-08-16T14:07:54.179Z,7.75
2022-08-16T14:10:21.427Z,6.53
2022-08-16T14:12:48.277Z,5.45
2022-08-16T14:15:16.100Z,6.35
2022-08-16T14:18:15.673Z,5.50
2022-08-16T14:20:30.225Z,5.40
2022-08-16T14:22:57.099Z,5.13
2022-08-16T14:25:25.401Z,5.78
2022-08-16T14:27:54.420Z,7.35
2022-08-16T14:30:22.651Z,4.07
2022-08-16T14:32:51.370Z,4.60
2022-08-16T14:35:48.622Z,5.75
2022-08-16T14:38:18.896Z,5.07
2022-08-16T14:40:52.788Z,6.07
2022-08-16T14:43:23.777Z,5.55
2022-08-16T14:45:50.866Z,4.78
2022-08-16T14:48:25.886Z,5.35
2022-08-16T14:50:53.839Z,5.47
2022-08-16T14:53:20.856Z,4.55
2022-08-16T14:55:48.498Z,4.88
2022-08-16T14:58:19.486Z,4.60
2022-08-16T15:00:50.345Z,3.35
2022-08-16T15:03:19.425Z,5.25
2022-08-16T15:05:49.337Z,5.97
2022-08-16T15:08:20.998Z,7.38
2022-08-16T15:11:03.301Z,4.28
2022-08-16T15:13:30.157Z,4.72
2022-08-16T15:16:02.318Z,3.80
2022-08-16T15:18:31.871Z,5.55
2022-08-16T15:21:01.801Z,4.03
2022-08-16T15:23:29.257Z,4.93
2022-08-16T15:26:02.583Z,3.22
2022-08-16T15:28:37.947Z,3.67
2022-08-16T15:31:08.268Z,4.47
2022-08-16T15:33:42.714Z,3.92
2022-08-16T15:36:17.471Z,5.07
2022-08-16T15:38:56.944Z,4.47
2022-08-16T15:41:38.777Z,4.22
2022-08-16T15:44:10.580Z,4.03
2022-08-16T15:46:54.768Z,3.40
2022-08-16T15:49:37.809Z,5.07
2022-08-16T15:52:20.429Z,3.65
2022-08-16T15:54:52.527Z,2.80
2022-08-16T15:57:24.736Z,2.55
2022-08-16T15:59:52.734Z,4.57
2022-08-16T16:02:31.309Z,3.10
2022-08-16T16:05:09.785Z,5.18
2022-08-16T16:07:40.689Z,4.18
2022-08-16T16:10:12.870Z,3.67
2022-08-16T16:12:51.403Z,2.55
2022-08-16T16:15:24.545Z,2.40
2022-08-16T16:17:53.070Z,4.40
2022-08-16T16:20:24.495Z,4.38
2022-08-16T16:23:00.190Z,3.50
2022-08-16T16:25:29.857Z,2.70
2022-08-16T16:27:59.934Z,2.63
2022-08-16T16:30:38.024Z,3.30
2022-08-16T16:33:20.847Z,3.33
2022-08-16T16:35:54.932Z,3.53
2022-08-16T16:38:24.594Z,6.28
2022-08-16T16:40:53.994Z,3.42
2022-08-16T16:43:25.888Z,4.50
2022-08-16T16:45:58.989Z,3.60
2022-08-16T16:48:34.353Z,3.65
2022-08-16T16:51:09.923Z,6.05
2022-08-16T16:53:41.809Z,3.72
2022-08-16T16:56:19.814Z,3.30
2022-08-16T16:58:56.664Z,4.55
2022-08-16T17:01:56.712Z,3.97
2022-08-16T17:04:27.394Z,3.85
2022-08-16T17:06:59.489Z,3.60
2022-08-16T17:09:26.270Z,3.90
2022-08-16T17:11:55.138Z,3.40
2022-08-16T17:14:33.312Z,5.18
2022-08-16T17:17:08.971Z,4.75
2022-08-16T17:19:40.852Z,3.40
2022-08-16T17:22:14.015Z,5.88
2022-08-16T17:24:45.355Z,6.53
2022-08-16T17:27:19.435Z,5.03
2022-08-16T17:30:14.654Z,6.13
2022-08-16T17:32:46.860Z,6.85
2022-08-16T17:35:19.143Z,6.00
2022-08-16T17:37:54.286Z,5.32
2022-08-16T17:40:40.268Z,6.38
2022-08-16T17:43:13.644Z,5.43
2022-08-16T17:45:41.831Z,4.30
2022-08-16T17:48:09.300Z,4.25
2022-08-16T17:50:37.530Z,3.95
2022-08-16T17:53:05.157Z,4.05
2022-08-16T17:55:35.820Z,4.78
2022-08-16T17:58:09.887Z,4.78
2022-08-16T18:00:49.567Z,6.38
2022-08-16T18:03:40.677Z,4.07
2022-08-16T18:06:13.678Z,4.80
2022-08-16T18:08:41.521Z,5.75
2022-08-16T18:11:12.078Z,4.70
2022-08-16T18:13:43.087Z,5.65
2022-08-16T18:16:11.560Z,4.63
2022-08-16T18:18:38.394Z,8.27
2022-08-16T18:21:23.807Z,4.50
2022-08-16T18:23:50.633Z,5.00
2022-08-16T18:26:17.577Z,5.22
2022-08-16T18:28:44.329Z,4.70
2022-08-16T18:31:11.161Z,5.07
2022-08-16T18:33:43.524Z,5.18
2022-08-16T18:36:19.915Z,5.80
2022-08-16T18:38:49.282Z,6.47
2022-08-16T18:41:16.430Z,5.17
2022-08-16T18:44:00.883Z,4.97
2022-08-16T18:46:30.047Z,7.47
2022-08-16T18:48:56.997Z,6.60
2022-08-16T18:51:25.463Z,5.67
2022-08-16T18:53:53.563Z,5.03
2022-08-16T18:56:20.593Z,5.95
2022-08-16T18:58:47.403Z,7.38
2022-08-16T19:01:14.503Z,6.78
2022-08-16T19:03:41.798Z,5.93
2022-08-16T19:06:13.888Z,8.02
2022-08-16T19:08:45.673Z,5.50
2022-08-16T19:11:19.978Z,6.00
2022-08-16T19:13:46.912Z,8.32
2022-08-16T19:16:15.234Z,8.98
2022-08-16T19:18:42.373Z,9.95
2022-08-16T19:21:14.601Z,6.63
2022-08-16T19:23:43.914Z,7.90
2022-08-16T19:26:24.734Z,6.23
2022-08-16T19:28:58.501Z,6.33
2022-08-16T19:31:35.297Z,6.00
2022-08-16T19:34:03.928Z,6.90
2022-08-16T19:36:36.086Z,6.03
2022-08-16T19:39:09.002Z,9.13
2022-08-16T19:41:38.703Z,10.73
2022-08-16T19:44:06.620Z,15.03
2022-08-16T19:46:34.632Z,13.07
2022-08-16T19:49:01.768Z,11.93
2022-08-16T19:51:28.918Z,12.80
2022-08-16T19:53:55.804Z,13.17
2022-08-16T19:56:25.662Z,13.77
2022-08-16T19:59:17.604Z,12.30
2022-08-16T20:01:42.529Z,12.90
2022-08-16T20:04:13.272Z,17.00
2022-08-16T20:06:41.511Z,16.23
2022-08-16T20:09:08.447Z,15.93
2022-08-16T20:11:37.455Z,17.33
2022-08-16T20:14:05.638Z,18.30
2022-08-16T20:16:32.754Z,16.77
2022-08-16T20:18:59.599Z,18.13
2022-08-16T20:21:26.345Z,19.50
2022-08-16T20:24:01.310Z,20.23
2022-08-16T20:26:37.094Z,21.73
2022-08-16T20:29:03.961Z,20.43
2022-08-16T20:31:30.926Z,20.53
2022-08-16T20:33:57.780Z,21.83
2022-08-16T20:36:24.894Z,21.70
2022-08-16T20:38:52.723Z,24.10
2022-08-16T20:41:19.595Z,23.73
2022-08-16T20:43:47.625Z,24.05
2022-08-16T20:46:15.441Z,23.03
2022-08-16T20:48:42.808Z,22.57
2022-08-16T20:51:12.799Z,24.83
2022-08-16T20:53:41.154Z,24.13
2022-08-16T20:56:11.263Z,24.40
2022-08-16T20:58:38.491Z,28.03
2022-08-16T21:01:08.424Z,23.27
2022-08-16T21:03:35.988Z,23.93
2022-08-16T21:06:03.146Z,23.60
2022-08-16T21:08:52.101Z,24.50
2022-08-16T21:11:18.028Z,24.30
2022-08-16T21:13:44.869Z,24.33
2022-08-16T21:16:11.745Z,24.40
2022-08-16T21:18:38.840Z,24.83
2022-08-16T21:21:05.731Z,23.67
2022-08-16T21:23:33.153Z,25.43
2022-08-16T21:26:00.078Z,26.10
2022-08-16T21:28:39.147Z,25.10
2022-08-16T21:31:09.755Z,25.73
2022-08-16T21:33:36.948Z,28.40
2022-08-16T21:36:04.304Z,25.77
2022-08-16T21:38:31.402Z,26.37
2022-08-16T21:40:59.854Z,26.37
2022-08-16T21:43:28.817Z,25.37
2022-08-16T21:45:56.071Z,29.27
2022-08-16T21:48:34.958Z,29.30
2022-08-16T21:51:08.446Z,27.67
2022-08-16T21:53:35.833Z,27.97
2022-08-16T21:56:04.192Z,28.00
2022-08-16T21:58:31.660Z,31.13
2022-08-16T22:00:59.156Z,29.63
2022-08-16T22:03:26.234Z,29.70
2022-08-16T22:06:12.281Z,32.93
2022-08-16T22:08:50.332Z,29.90
2022-08-16T22:11:19.672Z,31.30
2022-08-16T22:13:57.214Z,29.57
2022-08-16T22:16:31.541Z,30.43
2022-08-16T22:18:59.097Z,30.33
2022-08-16T22:21:26.487Z,32.77
2022-08-16T22:23:56.650Z,30.33
2022-08-16T22:26:38.451Z,33.40
2022-08-16T22:29:10.276Z,30.20
2022-08-16T22:31:39.471Z,31.40
2022-08-16T22:34:07.947Z,31.37
2022-08-16T22:36:35.319Z,32.23
2022-08-16T22:39:05.993Z,31.40
2022-08-16T22:41:34.292Z,34.13
2022-08-16T22:44:02.640Z,31.40
2022-08-16T22:46:30.468Z,33.83
2022-08-16T22:48:57.855Z,33.17
2022-08-16T22:51:27.483Z,34.20
2022-08-16T22:53:55.561Z,34.00
2022-08-16T22:56:23.827Z,34.27
2022-08-16T22:58:51.080Z,34.60
2022-08-16T23:01:20.875Z,34.80
2022-08-16T23:03:48.237Z,34.27
2022-08-16T23:06:15.717Z,37.47
2022-08-16T23:08:43.195Z,35.43
2022-08-16T23:11:13.187Z,34.33
2022-08-16T23:13:52.444Z,34.27
2022-08-16T23:16:32.490Z,34.93
2022-08-16T23:19:00.747Z,35.83
2022-08-16T23:21:27.928Z,35.40
2022-08-16T23:23:54.753Z,35.10
2022-08-16T23:26:46.979Z,33.30
2022-08-16T23:29:15.852Z,33.90
2022-08-16T23:31:49.293Z,33.87
2022-08-16T23:34:16.043Z,35.50
2022-08-16T23:36:42.896Z,33.77
2022-08-16T23:39:09.713Z,32.40
2022-08-16T23:41:36.528Z,34.10
2022-08-16T23:44:55.451Z,31.53
2022-08-16T23:46:50.227Z,35.30
2022-08-16T23:49:56.468Z,33.83
2022-08-16T23:52:08.062Z,33.80
2022-08-16T23:54:35.968Z,32.47
2022-08-16T23:57:04.761Z,36.03
2022-08-16T23:59:32.520Z,34.27
